Time;durP1;ratioP1;P1;durP2;ratioP2;P2;SDS_P1;SDS_P2;PMS_P1;PMS_P2;Temp;Humidity;BMP_temperature;BMP_pressure;BME280_temperature;BME280_humidity;BME280_pressure;Samples;Min_cycle;Max_cycle;Signal;HPM_P1;HPM_P2
2023/01/09 00:00:23;;;;;;;7.17;4.60;;;6.00;99.90;;;;;;4197683;28;20529;-78
2023/01/09 00:02:25;;;;;;;7.73;4.47;;;6.00;99.90;;;;;;4200594;28;21058;-78
2023/01/09 00:04:27;;;;;;;7.50;4.47;;;6.00;99.90;;;;;;4205072;28;20927;-78
2023/01/09 00:06:29;;;;;;;8.37;4.93;;;5.90;99.90;;;;;;4200807;28;20453;-78
2023/01/09 00:08:31;;;;;;;7.60;5.00;;;6.00;99.90;;;;;;4203804;28;20519;-78
2023/01/09 00:10:33;;;;;;;8.67;4.80;;;5.90;99.90;;;;;;4199803;28;20459;-78
2023/01/09 00:12:35;;;;;;;8.27;4.93;;;5.90;99.90;;;;;;4198318;28;20540;-78
2023/01/09 00:14:39;;;;;;;7.47;5.00;;;6.00;99.90;;;;;;4199584;28;20481;-78
2023/01/09 00:16:41;;;;;;;7.60;4.70;;;6.00;99.90;;;;;;4200246;28;20944;-78
2023/01/09 00:18:42;;;;;;;7.57;4.53;;;6.00;99.90;;;;;;4200159;28;20562;-78
2023/01/09 00:20:44;;;;;;;6.83;3.93;;;6.00;99.90;;;;;;4205753;28;20528;-78
2023/01/09 00:22:46;;;;;;;6.37;4.23;;;6.00;99.90;;;;;;4204465;28;20438;-78
2023/01/09 00:24:48;;;;;;;6.77;4.47;;;6.00;99.90;;;;;;4201653;28;20493;-78
2023/01/09 00:26:50;;;;;;;6.97;4.50;;;6.00;99.90;;;;;;4207263;28;20489;-78
2023/01/09 00:28:53;;;;;;;6.30;4.13;;;6.00;99.90;;;;;;4204755;28;20553;-78
2023/01/09 00:30:57;;;;;;;6.40;4.17;;;6.00;99.90;;;;;;4204162;28;20975;-78
2023/01/09 00:32:59;;;;;;;7.03;4.20;;;6.10;99.90;;;;;;4198879;28;20447;-78
2023/01/09 00:35:02;;;;;;;6.57;4.40;;;6.00;99.90;;;;;;4201203;28;21021;-78
2023/01/09 00:37:10;;;;;;;7.53;4.23;;;6.00;99.90;;;;;;4198625;28;20462;-78
2023/01/09 00:39:12;;;;;;;7.43;4.10;;;6.00;99.90;;;;;;4200898;28;21010;-78
2023/01/09 00:41:17;;;;;;;6.43;4.00;;;6.00;99.90;;;;;;4205308;28;20529;-78
2023/01/09 00:43:22;;;;;;;6.27;4.10;;;6.00;99.90;;;;;;4199195;28;20459;-78
2023/01/09 00:45:28;;;;;;;8.00;4.20;;;6.00;99.90;;;;;;4208510;28;20496;-78
2023/01/09 00:47:37;;;;;;;6.83;4.10;;;6.00;99.90;;;;;;4202755;28;20456;-78
2023/01/09 00:49:40;;;;;;;6.77;4.53;;;6.00;99.90;;;;;;4202135;28;20535;-78
2023/01/09 00:51:42;;;;;;;11.30;4.60;;;6.00;99.90;;;;;;4201652;28;20470;-78
2023/01/09 00:53:47;;;;;;;6.97;4.23;;;6.10;99.90;;;;;;4202005;28;20461;-78
2023/01/09 00:55:50;;;;;;;5.80;3.90;;;6.10;99.90;;;;;;4203286;28;20434;-78
2023/01/09 00:57:52;;;;;;;6.97;4.43;;;6.00;99.90;;;;;;4203822;28;20454;-78
2023/01/09 00:59:54;;;;;;;6.13;4.17;;;6.10;99.90;;;;;;4199693;28;20467;-78
2023/01/09 01:01:56;;;;;;;7.33;4.43;;;6.00;99.90;;;;;;4202242;28;20472;-78
2023/01/09 01:07:37;;;;;;;6.27;4.07;;;6.00;99.90;;;;;;4202137;28;20474;-78
2023/01/09 01:08:41;;;;;;;6.50;3.80;;;6.00;99.90;;;;;;4202284;28;20869;-78
2023/01/09 01:10:44;;;;;;;6.33;4.00;;;6.00;99.90;;;;;;4202134;28;20478;-78
2023/01/09 01:12:48;;;;;;;6.47;4.47;;;6.00;99.90;;;;;;4204714;28;20450;-77
2023/01/09 01:14:50;;;;;;;6.33;4.30;;;6.00;99.90;;;;;;4206448;28;20459;-78
2023/01/09 01:16:51;;;;;;;7.63;4.17;;;6.00;99.90;;;;;;4198711;28;20453;-78
2023/01/09 01:18:53;;;;;;;6.43;3.83;;;6.00;99.90;;;;;;4200849;28;20502;-78
2023/01/09 01:20:57;;;;;;;6.33;4.17;;;6.00;99.90;;;;;;4198977;28;20488;-78
2023/01/09 01:22:59;;;;;;;9.07;4.37;;;6.00;99.90;;;;;;4204930;28;20458;-78
2023/01/09 01:25:01;;;;;;;4.67;3.60;;;6.00;99.90;;;;;;4209677;28;20489;-78
2023/01/09 01:27:03;;;;;;;7.23;3.73;;;6.00;99.90;;;;;;4203036;28;20959;-78
2023/01/09 01:29:05;;;;;;;6.63;4.00;;;6.00;99.90;;;;;;4204226;28;21554;-77
2023/01/09 01:31:07;;;;;;;5.50;3.83;;;6.00;99.90;;;;;;4205561;28;20470;-78
2023/01/09 01:33:09;;;;;;;6.07;4.10;;;6.00;99.90;;;;;;4205965;28;20469;-78
2023/01/09 01:35:11;;;;;;;5.87;3.70;;;6.00;99.90;;;;;;4205871;28;20909;-78
2023/01/09 01:37:15;;;;;;;5.53;3.60;;;6.00;99.90;;;;;;4208318;28;20468;-78
2023/01/09 01:39:17;;;;;;;5.77;3.87;;;6.10;99.90;;;;;;4203970;28;20467;-78
2023/01/09 01:41:28;;;;;;;4.60;3.43;;;6.00;99.90;;;;;;4204896;28;20490;-78
2023/01/09 01:43:49;;;;;;;5.60;3.27;;;6.10;99.90;;;;;;4204538;28;20495;-78
2023/01/09 01:45:51;;;;;;;5.90;3.50;;;6.10;99.90;;;;;;4204152;28;20564;-78
2023/01/09 01:47:59;;;;;;;4.80;3.37;;;6.10;99.90;;;;;;4206985;28;20492;-78
2023/01/09 01:50:04;;;;;;;5.80;3.40;;;6.10;99.90;;;;;;4207932;28;20501;-78
2023/01/09 01:52:07;;;;;;;4.97;3.30;;;6.10;99.90;;;;;;4204610;28;20499;-77
2023/01/09 01:54:15;;;;;;;5.57;3.43;;;6.10;99.90;;;;;;4204310;28;20957;-78
2023/01/09 01:56:20;;;;;;;5.00;3.47;;;6.10;99.90;;;;;;4208287;28;20657;-78
2023/01/09 01:58:22;;;;;;;4.67;3.00;;;6.10;99.90;;;;;;4205271;28;20999;-78
2023/01/09 02:00:30;;;;;;;5.60;3.60;;;6.10;99.90;;;;;;4201787;28;20522;-77
2023/01/09 02:02:33;;;;;;;5.60;3.43;;;6.10;99.90;;;;;;4203821;28;20477;-78
2023/01/09 02:04:39;;;;;;;4.33;3.33;;;6.10;99.90;;;;;;4201930;28;20976;-78
2023/01/09 02:06:42;;;;;;;5.57;3.33;;;6.20;99.90;;;;;;4204156;28;21326;-78
2023/01/09 02:08:44;;;;;;;4.93;3.30;;;6.20;99.90;;;;;;4202050;28;20502;-78
2023/01/09 02:10:48;;;;;;;4.00;3.00;;;6.10;99.90;;;;;;4204237;28;20570;-78
2023/01/09 02:12:53;;;;;;;6.80;3.43;;;6.20;99.90;;;;;;4204426;28;21043;-78
2023/01/09 02:14:58;;;;;;;4.67;3.30;;;6.20;99.90;;;;;;4204319;28;20594;-78
2023/01/09 02:17:18;;;;;;;4.90;3.20;;;6.20;99.90;;;;;;4204767;28;20454;-78
2023/01/09 02:19:46;;;;;;;4.57;3.37;;;6.20;99.90;;;;;;4202451;28;20844;-78
2023/01/09 02:22:07;;;;;;;5.47;3.50;;;6.30;99.90;;;;;;4200936;28;21271;-78
2023/01/09 02:24:28;;;;;;;4.70;3.00;;;6.30;99.90;;;;;;4205118;28;20458;-78
2023/01/09 02:27:01;;;;;;;4.73;3.30;;;6.20;99.90;;;;;;4202268;28;20455;-78
2023/01/09 02:29:27;;;;;;;4.67;2.93;;;6.30;99.90;;;;;;4205843;28;20541;-77
2023/01/09 02:31:36;;;;;;;5.27;2.97;;;6.30;99.90;;;;;;4202541;28;20988;-78
2023/01/09 02:33:49;;;;;;;4.47;2.90;;;6.40;99.90;;;;;;4204191;28;21055;-78
2023/01/09 02:36:08;;;;;;;3.90;2.70;;;6.40;99.90;;;;;;4203240;28;20566;-78
2023/01/09 02:38:23;;;;;;;4.40;3.10;;;6.50;99.90;;;;;;4203203;28;20471;-78
2023/01/09 02:40:28;;;;;;;4.57;3.07;;;6.40;99.90;;;;;;4203266;28;20513;-78
2023/01/09 02:42:33;;;;;;;5.03;3.10;;;6.50;99.90;;;;;;4206511;28;20458;-78
2023/01/09 02:44:35;;;;;;;4.50;2.90;;;6.50;99.90;;;;;;4201527;28;20454;-77
2023/01/09 02:46:38;;;;;;;5.70;3.37;;;6.50;99.90;;;;;;4198623;28;20572;-78
2023/01/09 02:48:42;;;;;;;5.53;3.43;;;6.50;99.90;;;;;;4204919;28;20494;-78
2023/01/09 02:50:51;;;;;;;5.47;2.90;;;6.50;99.90;;;;;;4200207;28;20485;-78
2023/01/09 02:53:10;;;;;;;5.77;3.10;;;6.50;99.90;;;;;;4205665;28;21021;-78
2023/01/09 02:55:23;;;;;;;5.17;3.20;;;6.40;99.90;;;;;;4203588;28;20487;-78
2023/01/09 02:57:46;;;;;;;4.80;2.93;;;6.40;99.90;;;;;;4204806;28;20457;-77
2023/01/09 03:00:03;;;;;;;4.60;3.00;;;6.40;99.90;;;;;;4205150;28;20524;-78
2023/01/09 03:02:20;;;;;;;4.13;3.07;;;6.40;99.90;;;;;;4201050;28;20519;-78
2023/01/09 03:04:30;;;;;;;4.27;3.00;;;6.40;99.90;;;;;;4203248;28;20462;-78
2023/01/09 03:06:43;;;;;;;4.13;2.83;;;6.40;99.90;;;;;;4203892;28;21023;-78
2023/01/09 03:08:50;;;;;;;4.93;3.30;;;6.30;99.90;;;;;;4202568;28;20492;-78
2023/01/09 03:10:55;;;;;;;5.27;3.40;;;6.30;99.90;;;;;;4201377;28;20474;-78
2023/01/09 03:13:00;;;;;;;5.70;3.20;;;6.30;99.90;;;;;;4196595;28;20487;-78
2023/01/09 03:15:07;;;;;;;6.07;3.00;;;6.30;99.90;;;;;;4203304;28;20472;-78
2023/01/09 03:17:15;;;;;;;6.80;3.50;;;6.30;99.90;;;;;;4199600;28;20494;-78
2023/01/09 03:19:21;;;;;;;4.67;3.10;;;6.30;99.90;;;;;;4204969;28;20933;-78
2023/01/09 03:21:24;;;;;;;5.10;3.37;;;6.20;99.90;;;;;;4205462;28;20495;-78
2023/01/09 03:23:26;;;;;;;5.97;3.47;;;6.30;99.90;;;;;;4202965;28;21001;-77
2023/01/09 03:25:29;;;;;;;7.10;3.40;;;6.20;99.90;;;;;;4204206;28;20892;-77
2023/01/09 03:27:31;;;;;;;5.87;3.20;;;6.30;99.90;;;;;;4206833;28;20489;-77
2023/01/09 03:29:33;;;;;;;5.17;3.07;;;6.30;99.90;;;;;;4209190;28;20455;-78
2023/01/09 03:31:35;;;;;;;5.47;3.20;;;6.30;99.90;;;;;;4211142;28;20879;-78
2023/01/09 03:33:38;;;;;;;6.80;3.80;;;6.20;99.90;;;;;;4206502;28;20463;-78
2023/01/09 03:35:40;;;;;;;7.63;3.70;;;6.30;99.90;;;;;;4204694;28;20508;-77
2023/01/09 03:37:42;;;;;;;5.40;3.33;;;6.30;99.90;;;;;;4204176;28;20535;-78
2023/01/09 03:39:44;;;;;;;7.30;3.30;;;6.20;99.90;;;;;;4206073;28;20461;-77
2023/01/09 03:41:46;;;;;;;6.97;3.40;;;6.20;99.90;;;;;;4199498;28;20482;-77
2023/01/09 03:43:48;;;;;;;5.73;3.20;;;6.20;99.90;;;;;;4202886;28;20447;-77
2023/01/09 03:45:50;;;;;;;6.37;3.37;;;6.20;99.90;;;;;;4203508;28;20464;-77
2023/01/09 03:47:52;;;;;;;5.67;3.43;;;6.20;99.90;;;;;;4201309;28;20488;-77
2023/01/09 03:49:55;;;;;;;8.57;3.40;;;6.20;99.90;;;;;;4198141;28;20450;-77
2023/01/09 03:51:57;;;;;;;7.50;3.90;;;6.20;99.90;;;;;;4214415;28;20457;-77
2023/01/09 03:53:59;;;;;;;5.63;3.10;;;6.20;99.90;;;;;;4207420;28;20462;-77
2023/01/09 03:56:01;;;;;;;5.90;3.20;;;6.30;99.90;;;;;;4206729;28;20564;-77
2023/01/09 03:58:03;;;;;;;5.90;3.10;;;6.20;99.90;;;;;;4207358;28;20482;-77
2023/01/09 04:00:07;;;;;;;7.50;3.33;;;6.30;99.90;;;;;;4208488;28;20883;-78
2023/01/09 04:02:09;;;;;;;5.67;3.50;;;6.20;99.90;;;;;;4202519;28;20565;-77
2023/01/09 04:04:11;;;;;;;7.57;3.33;;;6.30;99.90;;;;;;4205464;28;20453;-77
2023/01/09 04:06:14;;;;;;;7.67;3.43;;;6.30;99.90;;;;;;4201017;28;20505;-77
2023/01/09 04:08:17;;;;;;;6.87;3.27;;;6.30;99.90;;;;;;4199318;28;20485;-77
2023/01/09 04:10:19;;;;;;;5.83;2.83;;;6.30;99.90;;;;;;4203453;28;20490;-77
2023/01/09 04:12:21;;;;;;;4.93;3.20;;;6.30;99.90;;;;;;4198461;28;20798;-77
2023/01/09 04:14:23;;;;;;;5.57;3.30;;;6.30;99.90;;;;;;4203865;28;20512;-77
2023/01/09 04:16:24;;;;;;;5.33;3.20;;;6.30;99.90;;;;;;4204709;28;20447;-77
2023/01/09 04:18:26;;;;;;;5.53;3.37;;;6.30;99.90;;;;;;4200593;28;20461;-77
2023/01/09 04:20:28;;;;;;;4.53;2.90;;;6.30;99.90;;;;;;4204025;28;20494;-77
2023/01/09 04:22:32;;;;;;;5.67;3.17;;;6.30;99.90;;;;;;4203247;28;20998;-77
2023/01/09 04:24:34;;;;;;;6.80;3.30;;;6.30;99.90;;;;;;4202185;28;20986;-77
2023/01/09 04:26:39;;;;;;;6.53;3.20;;;6.30;99.90;;;;;;4201047;28;20446;-77
2023/01/09 04:28:40;;;;;;;6.17;3.00;;;6.30;99.90;;;;;;4201974;28;21118;-77
2023/01/09 04:30:42;;;;;;;4.57;2.93;;;6.30;99.90;;;;;;4199678;28;20509;-77
2023/01/09 04:32:44;;;;;;;4.90;3.07;;;6.30;99.90;;;;;;4201856;28;20957;-77
2023/01/09 04:34:46;;;;;;;5.37;3.27;;;6.30;99.90;;;;;;4199782;28;21022;-77
2023/01/09 04:36:48;;;;;;;6.90;3.63;;;6.30;99.90;;;;;;4196149;28;20458;-77
2023/01/09 04:38:53;;;;;;;5.47;3.40;;;6.30;99.90;;;;;;4198948;28;20971;-77
2023/01/09 04:40:55;;;;;;;4.60;2.70;;;6.30;99.90;;;;;;4199897;28;20477;-78
2023/01/09 04:42:57;;;;;;;7.23;3.43;;;6.30;99.90;;;;;;4198785;28;20479;-78
2023/01/09 04:44:59;;;;;;;6.10;3.30;;;6.30;99.90;;;;;;4200349;28;20462;-78
2023/01/09 04:47:01;;;;;;;5.33;3.17;;;6.30;99.90;;;;;;4198146;28;20540;-78
2023/01/09 04:49:03;;;;;;;5.33;3.00;;;6.30;99.90;;;;;;4199417;28;20825;-77
2023/01/09 04:51:05;;;;;;;6.27;3.40;;;6.30;99.90;;;;;;4203913;28;20831;-77
2023/01/09 04:53:10;;;;;;;7.07;3.60;;;6.40;99.90;;;;;;4198848;28;20451;-77
2023/01/09 04:55:13;;;;;;;4.90;2.93;;;6.40;99.90;;;;;;4204674;28;20457;-78
2023/01/09 04:57:15;;;;;;;5.60;3.10;;;6.30;99.90;;;;;;4203403;28;21078;-78
2023/01/09 04:59:17;;;;;;;5.37;3.20;;;6.40;99.90;;;;;;4198879;28;20454;-78
2023/01/09 05:01:19;;;;;;;5.93;3.60;;;6.40;99.90;;;;;;4202588;28;20506;-78
2023/01/09 05:03:21;;;;;;;6.67;3.83;;;6.30;99.90;;;;;;4202113;28;20532;-78
2023/01/09 05:05:23;;;;;;;6.37;3.50;;;6.40;99.90;;;;;;4212930;28;20979;-78
2023/01/09 05:07:27;;;;;;;6.13;3.80;;;6.40;99.90;;;;;;4206144;28;20462;-78
2023/01/09 05:09:29;;;;;;;5.93;3.40;;;6.40;99.90;;;;;;4208040;28;20463;-77
2023/01/09 05:11:32;;;;;;;6.73;3.70;;;6.40;99.90;;;;;;4203851;28;20971;-78
2023/01/09 05:13:34;;;;;;;6.50;4.00;;;6.40;99.90;;;;;;4203869;28;20560;-78
2023/01/09 05:15:36;;;;;;;5.07;3.23;;;6.40;99.90;;;;;;4202447;28;20520;-76
2023/01/09 05:17:38;;;;;;;6.60;3.77;;;6.40;99.90;;;;;;4205256;28;20488;-78
2023/01/09 05:19:41;;;;;;;8.20;3.47;;;6.40;99.90;;;;;;4200533;28;20554;-80
2023/01/09 05:21:43;;;;;;;5.83;3.70;;;6.40;99.90;;;;;;4201370;28;20475;-77
2023/01/09 05:23:45;;;;;;;6.07;4.00;;;6.40;99.90;;;;;;4203370;28;20459;-76
2023/01/09 05:25:46;;;;;;;6.87;3.70;;;6.40;99.90;;;;;;4204205;28;20914;-76
2023/01/09 05:27:50;;;;;;;6.17;3.60;;;6.40;99.90;;;;;;4203278;28;20532;-77
2023/01/09 05:29:51;;;;;;;8.13;3.70;;;6.30;99.90;;;;;;4203085;28;21129;-76
2023/01/09 05:31:53;;;;;;;10.03;4.90;;;6.30;99.90;;;;;;4202406;28;20972;-77
2023/01/09 05:33:58;;;;;;;8.80;4.70;;;6.40;99.90;;;;;;4203827;28;20460;-76
2023/01/09 05:35:59;;;;;;;6.83;4.20;;;6.30;99.90;;;;;;4203317;28;20470;-76
2023/01/09 05:38:01;;;;;;;5.47;3.57;;;6.30;99.90;;;;;;4200823;28;20465;-77
2023/01/09 05:40:07;;;;;;;5.53;3.13;;;6.30;99.90;;;;;;4207559;28;21013;-76
2023/01/09 05:42:11;;;;;;;6.93;3.70;;;6.40;99.90;;;;;;4201429;28;20568;-76
2023/01/09 05:44:14;;;;;;;5.70;3.63;;;6.40;99.90;;;;;;4204674;28;20536;-76
2023/01/09 05:46:16;;;;;;;9.90;3.70;;;6.40;99.90;;;;;;4200825;28;20450;-75
2023/01/09 05:48:18;;;;;;;4.83;2.97;;;6.40;99.90;;;;;;4204868;28;20903;-76
2023/01/09 05:50:20;;;;;;;6.00;3.60;;;6.40;99.90;;;;;;4201581;28;20543;-74
2023/01/09 05:52:22;;;;;;;5.87;3.70;;;6.30;99.90;;;;;;4205729;28;20973;-75
2023/01/09 05:54:24;;;;;;;6.17;3.60;;;6.40;99.90;;;;;;4203728;28;20462;-77
2023/01/09 05:56:26;;;;;;;7.23;3.47;;;6.30;99.90;;;;;;4202172;28;20490;-76
2023/01/09 05:58:28;;;;;;;5.87;3.30;;;6.30;99.90;;;;;;4205869;28;20458;-77
2023/01/09 06:00:31;;;;;;;6.90;3.47;;;6.30;99.90;;;;;;4202082;28;20478;-76
2023/01/09 06:02:33;;;;;;;5.20;3.30;;;6.30;99.90;;;;;;4198782;28;20487;-76
2023/01/09 06:04:35;;;;;;;6.07;3.30;;;6.30;99.90;;;;;;4203538;28;20490;-77
2023/01/09 06:06:38;;;;;;;6.90;3.33;;;6.30;99.90;;;;;;4200034;28;20542;-77
2023/01/09 06:08:40;;;;;;;5.97;3.50;;;6.30;99.90;;;;;;4201954;28;20508;-77
2023/01/09 06:10:42;;;;;;;5.07;3.17;;;6.30;99.90;;;;;;4201124;28;20507;-77
2023/01/09 06:12:50;;;;;;;6.63;3.53;;;6.40;99.90;;;;;;4198048;28;20451;-77
2023/01/09 06:14:52;;;;;;;9.70;3.27;;;6.40;99.90;;;;;;4200733;28;20976;-77
2023/01/09 06:16:55;;;;;;;6.97;3.30;;;6.40;99.90;;;;;;4200819;28;20845;-77
2023/01/09 06:18:58;;;;;;;5.80;3.37;;;6.40;99.90;;;;;;4199076;28;21079;-77
2023/01/09 06:20:59;;;;;;;7.40;3.87;;;6.40;99.90;;;;;;4199335;28;20477;-77
2023/01/09 06:23:03;;;;;;;6.23;3.73;;;6.40;99.90;;;;;;4199037;28;20863;-79
2023/01/09 06:25:07;;;;;;;6.90;3.80;;;6.40;99.90;;;;;;4199826;28;20546;-77
2023/01/09 06:27:09;;;;;;;5.43;3.50;;;6.40;99.90;;;;;;4199082;28;20446;-78
2023/01/09 06:29:11;;;;;;;6.13;3.97;;;6.40;99.90;;;;;;4199328;28;20521;-77
2023/01/09 06:31:13;;;;;;;7.20;4.00;;;6.40;99.90;;;;;;4200093;28;20469;-78
2023/01/09 06:33:16;;;;;;;7.10;4.00;;;6.40;99.90;;;;;;4202558;28;20470;-77
2023/01/09 06:35:19;;;;;;;6.67;3.50;;;6.40;99.90;;;;;;4200467;28;20462;-77
2023/01/09 06:37:21;;;;;;;6.27;3.90;;;6.40;99.90;;;;;;4200110;28;20940;-78
2023/01/09 06:39:23;;;;;;;6.13;3.90;;;6.40;99.90;;;;;;4200821;28;20537;-78
2023/01/09 06:41:25;;;;;;;7.97;3.90;;;6.40;99.90;;;;;;4200367;28;20563;-78
2023/01/09 06:43:27;;;;;;;5.37;3.50;;;6.40;99.90;;;;;;4201522;28;20909;-78
2023/01/09 06:45:29;;;;;;;6.60;3.67;;;6.40;99.90;;;;;;4198591;28;20897;-78
2023/01/09 06:47:30;;;;;;;6.93;3.70;;;6.40;99.90;;;;;;4201564;28;20461;-77
2023/01/09 06:49:34;;;;;;;7.80;3.50;;;6.40;99.90;;;;;;4199376;28;20538;-76
2023/01/09 06:51:36;;;;;;;6.47;3.80;;;6.40;99.90;;;;;;4203534;28;20475;-78
2023/01/09 06:53:37;;;;;;;5.57;3.37;;;6.40;99.90;;;;;;4202288;28;20572;-78
2023/01/09 06:55:39;;;;;;;6.83;3.87;;;6.40;99.90;;;;;;4203363;28;20470;-77
2023/01/09 06:57:41;;;;;;;6.63;4.03;;;6.40;99.90;;;;;;4199000;28;20457;-77
2023/01/09 06:59:43;;;;;;;8.03;4.00;;;6.40;99.90;;;;;;4207047;28;20544;-80
2023/01/09 07:01:45;;;;;;;6.80;4.07;;;6.40;99.90;;;;;;4202018;28;20911;-79
2023/01/09 07:03:48;;;;;;;7.53;3.90;;;6.40;99.90;;;;;;4202881;28;20474;-76
2023/01/09 07:05:51;;;;;;;7.77;4.43;;;6.40;99.90;;;;;;4197154;28;20455;-76
2023/01/09 07:07:53;;;;;;;7.73;4.33;;;6.40;99.90;;;;;;4196781;28;20512;-74
2023/01/09 07:09:55;;;;;;;6.13;3.73;;;6.40;99.90;;;;;;4194314;28;20486;-75
2023/01/09 07:11:57;;;;;;;6.50;4.17;;;6.40;99.90;;;;;;4197749;28;21182;-76
2023/01/09 07:13:59;;;;;;;6.03;3.80;;;6.40;99.90;;;;;;4201272;28;20442;-77
2023/01/09 07:16:02;;;;;;;9.03;4.23;;;6.50;99.90;;;;;;4197426;28;20494;-77
2023/01/09 07:18:04;;;;;;;6.23;3.53;;;6.40;99.90;;;;;;4207103;28;20462;-75
2023/01/09 07:20:08;;;;;;;7.07;4.13;;;6.40;99.90;;;;;;4198808;28;20616;-77
2023/01/09 07:22:11;;;;;;;7.17;4.40;;;6.50;99.90;;;;;;4199746;28;20742;-77
2023/01/09 07:24:13;;;;;;;8.50;4.10;;;6.40;99.90;;;;;;4196736;28;20481;-77
2023/01/09 07:26:15;;;;;;;5.33;3.67;;;6.40;99.90;;;;;;4199382;28;20482;-77
2023/01/09 07:28:17;;;;;;;6.73;4.07;;;6.50;99.90;;;;;;4199628;28;20972;-75
2023/01/09 07:30:19;;;;;;;10.00;3.90;;;6.50;99.90;;;;;;4201823;28;20478;-76
2023/01/09 07:32:21;;;;;;;7.50;4.00;;;6.50;99.90;;;;;;4199378;28;20593;-77
2023/01/09 07:34:23;;;;;;;7.30;3.70;;;6.50;99.90;;;;;;4204315;28;20454;-77
2023/01/09 07:36:28;;;;;;;7.33;4.30;;;6.50;99.90;;;;;;4199736;28;20522;-76
2023/01/09 07:38:32;;;;;;;9.53;4.37;;;6.50;99.90;;;;;;4198356;28;20473;-77
2023/01/09 07:40:34;;;;;;;6.07;3.63;;;6.50;99.90;;;;;;4200161;28;20479;-77
2023/01/09 07:42:36;;;;;;;6.47;4.03;;;6.50;99.90;;;;;;4198806;28;21166;-77
2023/01/09 07:44:38;;;;;;;6.47;4.00;;;6.50;99.90;;;;;;4200511;28;21175;-77
2023/01/09 07:46:40;;;;;;;6.30;3.50;;;6.60;99.90;;;;;;4198220;28;20951;-76
2023/01/09 07:48:42;;;;;;;5.33;3.30;;;6.60;99.90;;;;;;4198410;28;20453;-77
2023/01/09 07:50:44;;;;;;;6.83;3.43;;;6.70;99.90;;;;;;4200315;28;20520;-77
2023/01/09 07:52:46;;;;;;;6.33;3.40;;;6.70;99.90;;;;;;4202397;28;20462;-77
2023/01/09 07:54:49;;;;;;;5.27;2.93;;;6.70;99.90;;;;;;4200511;28;20478;-77
2023/01/09 07:56:51;;;;;;;6.07;3.10;;;6.70;99.90;;;;;;4202611;28;20486;-76
2023/01/09 07:58:53;;;;;;;5.57;3.10;;;6.70;99.90;;;;;;4196503;28;20452;-76
2023/01/09 08:00:55;;;;;;;5.30;2.50;;;7.00;99.90;;;;;;4201148;28;20485;-77
2023/01/09 08:02:57;;;;;;;4.57;2.70;;;6.80;99.90;;;;;;4200759;28;20529;-77
2023/01/09 08:04:59;;;;;;;3.87;2.40;;;6.80;99.90;;;;;;4201173;28;20548;-76
2023/01/09 08:07:02;;;;;;;3.90;2.10;;;6.80;99.90;;;;;;4195537;28;20495;-77
2023/01/09 08:09:04;;;;;;;2.80;1.73;;;6.90;99.90;;;;;;4199730;28;20865;-77
2023/01/09 08:11:07;;;;;;;4.00;1.90;;;6.90;99.90;;;;;;4199838;28;20562;-77
2023/01/09 08:13:09;;;;;;;2.77;1.47;;;6.90;99.90;;;;;;4200184;28;20532;-77
2023/01/09 08:15:11;;;;;;;2.50;1.47;;;6.90;99.90;;;;;;4198862;28;20449;-77
2023/01/09 08:17:13;;;;;;;3.03;1.53;;;6.90;99.90;;;;;;4202195;28;20446;-77
2023/01/09 08:19:15;;;;;;;2.33;1.33;;;7.00;99.90;;;;;;4197852;28;20498;-77
2023/01/09 08:21:17;;;;;;;2.90;1.30;;;7.00;99.90;;;;;;4202063;28;20473;-76
2023/01/09 08:23:19;;;;;;;2.67;1.17;;;7.10;99.90;;;;;;4198610;28;21066;-77
2023/01/09 08:25:21;;;;;;;3.10;1.10;;;7.10;99.90;;;;;;4202420;28;20948;-77
2023/01/09 08:27:24;;;;;;;1.87;1.30;;;7.10;99.90;;;;;;4200187;28;20451;-77
2023/01/09 08:29:26;;;;;;;1.47;1.03;;;7.20;99.90;;;;;;4199597;28;20469;-77
2023/01/09 08:31:28;;;;;;;1.80;1.20;;;7.20;99.90;;;;;;4194855;28;20471;-76
2023/01/09 08:33:31;;;;;;;1.77;1.00;;;7.20;99.90;;;;;;4198973;28;20459;-77
2023/01/09 08:35:33;;;;;;;1.27;1.00;;;7.20;99.90;;;;;;4197874;28;20490;-76
2023/01/09 08:37:35;;;;;;;1.20;1.00;;;7.20;99.90;;;;;;4200075;28;20490;-76
2023/01/09 08:39:37;;;;;;;2.20;1.03;;;7.20;99.90;;;;;;4204381;28;20489;-77
2023/01/09 08:48:41;;;;;;;1.17;1.00;;;7.30;99.90;;;;;;4199069;28;20849;-77
2023/01/09 08:50:43;;;;;;;1.83;1.07;;;7.40;99.90;;;;;;4198171;28;20481;-76
2023/01/09 08:52:45;;;;;;;1.40;1.00;;;7.40;99.90;;;;;;4195226;28;20482;-77
2023/01/09 08:54:47;;;;;;;2.37;1.07;;;7.40;99.90;;;;;;4195907;28;20451;-78
2023/01/09 08:56:49;;;;;;;2.50;1.10;;;7.40;99.90;;;;;;4197513;28;20877;-77
2023/01/09 08:58:51;;;;;;;2.37;0.80;;;7.40;99.90;;;;;;4198686;28;20512;-78
2023/01/09 09:00:54;;;;;;;0.83;0.77;;;7.40;99.90;;;;;;4198904;28;20566;-77
2023/01/09 09:02:58;;;;;;;2.83;1.03;;;7.40;99.90;;;;;;4198233;28;20482;-78
2023/01/09 09:05:00;;;;;;;3.57;0.90;;;7.40;99.90;;;;;;4198667;28;20466;-75
2023/01/09 09:07:02;;;;;;;1.33;0.90;;;7.40;99.90;;;;;;4200592;28;20506;-76
2023/01/09 09:09:05;;;;;;;1.20;1.00;;;7.40;99.90;;;;;;4202194;28;20528;-77
2023/01/09 09:11:07;;;;;;;1.43;0.90;;;7.50;99.90;;;;;;4198985;28;20473;-76
2023/01/09 09:13:09;;;;;;;1.37;0.87;;;7.50;99.90;;;;;;4195088;28;20538;-76
2023/01/09 09:15:22;;;;;;;5.80;0.80;;;7.50;99.90;;;;;;4196199;28;20467;-77
2023/01/09 09:17:26;;;;;;;1.23;1.00;;;7.60;99.90;;;;;;4202480;28;20446;-77
2023/01/09 09:19:31;;;;;;;3.13;1.03;;;7.50;99.90;;;;;;4198814;28;20463;-78
2023/01/09 09:21:32;;;;;;;1.00;0.90;;;7.60;99.90;;;;;;4195813;28;20572;-75
2023/01/09 09:23:36;;;;;;;1.70;0.80;;;7.60;99.90;;;;;;4198082;28;20582;-77
2023/01/09 09:25:38;;;;;;;1.63;1.03;;;7.60;99.90;;;;;;4199270;28;20858;-75
2023/01/09 09:27:40;;;;;;;1.20;0.80;;;7.60;99.90;;;;;;4196140;28;20462;-78
2023/01/09 09:29:42;;;;;;;0.93;0.83;;;7.60;99.90;;;;;;4198010;28;20452;-77
2023/01/09 09:31:47;;;;;;;1.33;0.80;;;7.70;99.90;;;;;;4197791;28;20222;-78
2023/01/09 09:33:50;;;;;;;1.60;0.87;;;7.60;99.90;;;;;;4199765;28;20484;-78
2023/01/09 09:35:52;;;;;;;0.73;0.73;;;7.60;99.90;;;;;;4197145;28;20452;-76
2023/01/09 09:37:55;;;;;;;0.77;0.70;;;7.60;99.90;;;;;;4198749;28;20547;-77
2023/01/09 09:39:57;;;;;;;4.90;1.00;;;7.60;99.90;;;;;;4199219;28;20455;-76
2023/01/09 09:45:10;;;;;;;1.30;0.70;;;7.60;99.90;;;;;;4197868;28;20586;-74
2023/01/09 09:47:31;;;;;;;1.17;0.90;;;7.60;99.90;;;;;;4202682;28;20526;-77
2023/01/09 09:49:42;;;;;;;1.20;0.80;;;7.60;99.90;;;;;;4204505;28;20553;-78
2023/01/09 09:52:05;;;;;;;1.23;0.87;;;7.60;99.90;;;;;;4200214;28;20524;-78
2023/01/09 09:54:13;;;;;;;0.77;0.67;;;7.60;99.90;;;;;;4201965;28;20527;-77
2023/01/09 09:56:18;;;;;;;2.30;0.87;;;7.60;99.90;;;;;;4200618;28;20459;-78
2023/01/09 09:58:26;;;;;;;1.00;0.60;;;7.60;99.90;;;;;;4203169;28;20459;-76
2023/01/09 10:00:28;;;;;;;0.63;0.50;;;7.70;99.90;;;;;;4202190;28;20481;-77
2023/01/09 10:02:39;;;;;;;1.17;0.70;;;7.80;99.90;;;;;;4201885;28;20514;-77
2023/01/09 10:04:50;;;;;;;0.60;0.50;;;7.70;99.90;;;;;;4203315;28;20518;-77
2023/01/09 10:06:56;;;;;;;0.60;0.50;;;7.80;99.90;;;;;;4201871;28;20479;-77
2023/01/09 10:09:05;;;;;;;1.40;0.90;;;7.80;99.90;;;;;;4198886;28;20454;-78
2023/01/09 10:11:17;;;;;;;1.50;0.90;;;7.80;99.90;;;;;;4204307;28;20474;-74
2023/01/09 10:15:48;;;;;;;0.80;0.70;;;7.90;99.90;;;;;;4202428;28;21160;-76
2023/01/09 10:18:00;;;;;;;1.90;0.80;;;7.90;99.90;;;;;;4199205;28;20531;-75
2023/01/09 10:20:39;;;;;;;2.30;0.53;;;8.00;99.90;;;;;;4199357;28;20550;-74
2023/01/09 10:22:49;;;;;;;0.87;0.40;;;8.10;99.90;;;;;;4199756;28;20591;-76
2023/01/09 10:25:04;;;;;;;2.77;0.80;;;8.10;99.90;;;;;;4199794;28;20471;-75
2023/01/09 10:27:16;;;;;;;2.53;0.73;;;8.00;99.90;;;;;;4200245;28;21548;-77
2023/01/09 10:29:36;;;;;;;2.13;1.00;;;8.00;99.90;;;;;;4201851;28;20277;-76
2023/01/09 10:31:49;;;;;;;0.70;0.40;;;8.00;99.90;;;;;;4201962;28;20475;-78
2023/01/09 10:33:59;;;;;;;2.80;0.93;;;8.00;99.90;;;;;;4200893;28;20531;-75
2023/01/09 10:36:33;;;;;;;4.20;1.10;;;8.00;99.90;;;;;;4202901;28;20525;-78
2023/01/09 10:38:40;;;;;;;4.70;0.60;;;8.10;99.90;;;;;;4200728;28;20458;-78
2023/01/09 10:40:48;;;;;;;2.50;0.90;;;8.10;99.90;;;;;;4203135;28;20235;-78
2023/01/09 10:42:54;;;;;;;1.37;0.60;;;8.10;99.90;;;;;;4199127;28;20497;-77
2023/01/09 10:45:01;;;;;;;2.10;0.50;;;8.20;99.90;;;;;;4202320;28;20214;-77
2023/01/09 10:47:07;;;;;;;0.50;0.40;;;8.30;99.90;;;;;;4199945;28;20663;-77
2023/01/09 10:49:15;;;;;;;0.47;0.37;;;8.30;99.90;;;;;;4200979;28;20213;-75
2023/01/09 10:51:20;;;;;;;2.47;0.40;;;8.30;99.90;;;;;;4202907;28;20320;-74
2023/01/09 10:53:27;;;;;;;1.53;0.50;;;8.40;99.90;;;;;;4199288;28;20292;-77
2023/01/09 10:55:37;;;;;;;1.97;0.67;;;8.40;99.90;;;;;;4202332;28;20212;-74
2023/01/09 10:57:42;;;;;;;1.27;0.50;;;8.40;99.90;;;;;;4196412;28;20564;-78
2023/01/09 10:59:44;;;;;;;2.93;0.67;;;8.40;99.90;;;;;;4196198;28;20206;-74
2023/01/09 11:01:46;;;;;;;1.97;0.57;;;8.40;99.90;;;;;;4201338;28;20260;-75
2023/01/09 11:03:48;;;;;;;1.27;0.40;;;8.50;99.90;;;;;;4200135;28;20220;-77
2023/01/09 11:05:52;;;;;;;1.77;0.40;;;8.50;99.90;;;;;;4206659;28;20289;-75
2023/01/09 11:07:59;;;;;;;0.73;0.40;;;8.50;99.90;;;;;;4196727;28;20218;-74
2023/01/09 11:10:04;;;;;;;2.23;0.70;;;8.50;99.90;;;;;;4202261;28;20455;-75
2023/01/09 11:12:23;;;;;;;3.17;0.60;;;8.50;99.90;;;;;;4201210;28;20233;-78